Time;durP1;ratioP1;P1;durP2;ratioP2;P2;SDS_P1;SDS_P2;PMS_P1;PMS_P2;Temp;Humidity;BMP_temperature;BMP_pressure;BME280_temperature;BME280_humidity;BME280_pressure;Samples;Min_cycle;Max_cycle;Signal;HPM_P1;HPM_P2
2021/04/03 00:00:24;;;;;;;3.27;2.20;;;6.90;99.90;;;;;;4967338;28;20592;-70
2021/04/03 00:02:52;;;;;;;4.07;2.53;;;6.80;99.90;;;;;;4969297;28;20223;-70
2021/04/03 00:05:19;;;;;;;3.30;2.03;;;6.80;99.90;;;;;;4955990;28;20681;-70
2021/04/03 00:07:46;;;;;;;5.87;2.57;;;6.70;99.90;;;;;;4967940;28;20192;-70
2021/04/03 00:10:15;;;;;;;2.67;1.90;;;6.70;99.90;;;;;;4961817;28;20251;-70
2021/04/03 00:12:43;;;;;;;2.30;1.83;;;6.60;99.90;;;;;;4950861;28;20193;-70
2021/04/03 00:15:13;;;;;;;2.40;2.20;;;6.60;99.90;;;;;;4959571;28;20236;-70
2021/04/03 00:17:39;;;;;;;3.07;1.97;;;6.60;99.90;;;;;;4958577;28;20201;-70
2021/04/03 00:20:09;;;;;;;4.13;2.10;;;6.60;99.90;;;;;;4960409;28;20755;-69
2021/04/03 00:22:36;;;;;;;2.37;1.97;;;6.60;99.90;;;;;;4965260;28;20227;-70
2021/04/03 00:25:03;;;;;;;3.33;2.40;;;6.60;99.90;;;;;;4953980;28;20193;-69
2021/04/03 00:27:30;;;;;;;4.40;2.30;;;6.50;99.90;;;;;;4951068;28;20189;-69
2021/04/03 00:29:56;;;;;;;7.27;2.80;;;6.50;99.90;;;;;;4957150;28;20212;-69
2021/04/03 00:32:24;;;;;;;5.70;3.20;;;6.50;99.90;;;;;;4957241;28;20319;-69
2021/04/03 00:34:51;;;;;;;5.93;2.60;;;6.40;99.90;;;;;;4961887;28;20561;-69
2021/04/03 00:37:17;;;;;;;5.17;2.37;;;6.40;99.90;;;;;;4964201;28;20204;-69
2021/04/03 00:39:44;;;;;;;5.37;2.57;;;6.40;99.90;;;;;;4959098;28;20217;-69
2021/04/03 00:42:17;;;;;;;6.27;2.53;;;6.30;99.90;;;;;;4961481;28;20207;-70
2021/04/03 00:44:46;;;;;;;4.87;2.80;;;6.30;99.90;;;;;;4965557;28;20232;-70
2021/04/03 00:47:13;;;;;;;5.70;2.57;;;6.30;99.90;;;;;;4962401;28;20212;-70
2021/04/03 00:49:42;;;;;;;3.53;2.50;;;6.30;99.90;;;;;;4965690;28;20205;-70
2021/04/03 00:52:10;;;;;;;5.37;2.23;;;6.30;99.90;;;;;;4961288;28;20315;-69
2021/04/03 00:54:36;;;;;;;4.10;2.70;;;6.30;99.90;;;;;;4968893;28;20198;-69
2021/04/03 00:57:04;;;;;;;4.57;2.20;;;6.30;99.90;;;;;;4973024;28;20192;-69
2021/04/03 00:59:32;;;;;;;5.57;2.70;;;6.30;99.90;;;;;;4968212;28;20259;-69
2021/04/03 01:02:00;;;;;;;4.87;2.63;;;6.20;99.90;;;;;;4961054;28;20231;-69
2021/04/03 01:04:28;;;;;;;4.07;2.60;;;6.20;99.90;;;;;;4972985;28;20219;-69
2021/04/03 01:06:57;;;;;;;6.60;2.80;;;6.20;99.90;;;;;;4958861;28;20192;-69
2021/04/03 01:09:24;;;;;;;4.60;2.63;;;6.10;99.90;;;;;;4970003;28;20604;-69
2021/04/03 01:12:01;;;;;;;6.47;2.90;;;6.10;99.90;;;;;;4975078;28;20236;-69
2021/04/03 01:14:36;;;;;;;7.70;2.93;;;6.10;99.90;;;;;;4966504;28;20201;-69
2021/04/03 01:17:10;;;;;;;4.90;3.07;;;6.10;99.90;;;;;;4962409;28;20200;-69
2021/04/03 01:20:08;;;;;;;3.53;2.73;;;6.00;99.90;;;;;;4972623;28;20227;-69
2021/04/03 01:22:58;;;;;;;4.67;2.83;;;6.00;99.90;;;;;;4954884;29;20605;-69
2021/04/03 01:25:37;;;;;;;3.53;3.03;;;6.00;99.90;;;;;;4957418;28;20343;-70
2021/04/03 01:28:35;;;;;;;6.70;3.67;;;6.00;99.90;;;;;;4955480;28;20205;-70
2021/04/03 01:31:04;;;;;;;4.97;3.10;;;6.00;99.90;;;;;;4958496;28;20243;-69
2021/04/03 01:33:35;;;;;;;5.20;2.53;;;6.00;99.90;;;;;;4962441;28;20200;-69
2021/04/03 01:36:05;;;;;;;3.70;2.60;;;6.00;99.90;;;;;;4958342;28;20196;-69
2021/04/03 01:38:37;;;;;;;6.00;2.53;;;5.90;99.90;;;;;;4967690;28;20209;-69
2021/04/03 01:41:08;;;;;;;4.03;3.00;;;5.90;99.90;;;;;;4952120;28;20660;-70
2021/04/03 01:43:43;;;;;;;8.70;3.10;;;5.90;99.90;;;;;;4952889;28;20692;-71
2021/04/03 01:46:15;;;;;;;6.00;3.10;;;5.90;99.90;;;;;;4945044;28;20240;-68
2021/04/03 01:48:44;;;;;;;3.53;2.50;;;5.90;99.90;;;;;;4958180;28;20201;-69
2021/04/03 01:51:12;;;;;;;3.13;2.10;;;5.90;99.90;;;;;;4945000;29;20194;-69
2021/04/03 01:53:41;;;;;;;3.90;2.40;;;5.90;99.90;;;;;;4940521;28;20230;-70
2021/04/03 01:56:12;;;;;;;4.63;2.83;;;5.90;99.90;;;;;;4961940;28;20287;-69
2021/04/03 01:58:42;;;;;;;3.77;2.63;;;5.90;99.90;;;;;;4969526;28;20212;-71
2021/04/03 02:01:11;;;;;;;3.73;2.80;;;5.90;99.90;;;;;;4963834;28;20205;-69
2021/04/03 02:03:40;;;;;;;5.70;2.63;;;5.90;99.90;;;;;;4966575;28;20225;-69
2021/04/03 02:06:10;;;;;;;5.80;2.53;;;5.90;99.90;;;;;;4962023;28;20676;-69
2021/04/03 02:08:58;;;;;;;5.67;2.60;;;5.90;99.90;;;;;;4967433;28;20200;-69
2021/04/03 02:11:49;;;;;;;5.03;2.67;;;5.90;99.90;;;;;;4954345;28;20206;-70
2021/04/03 02:14:35;;;;;;;3.23;2.13;;;6.00;99.90;;;;;;4966363;28;20204;-69
2021/04/03 02:17:04;;;;;;;2.23;2.03;;;6.00;99.90;;;;;;4964012;28;20200;-70
2021/04/03 02:19:33;;;;;;;3.33;2.37;;;6.00;99.90;;;;;;4962079;28;20201;-70
2021/04/03 02:22:01;;;;;;;3.10;2.33;;;6.00;99.90;;;;;;4958536;28;20251;-70
2021/04/03 02:24:28;;;;;;;2.87;2.40;;;6.00;99.90;;;;;;4966718;28;20221;-71
2021/04/03 02:26:54;;;;;;;3.70;2.30;;;6.00;99.90;;;;;;4956314;28;20685;-69
2021/04/03 02:29:22;;;;;;;2.83;2.33;;;6.00;99.90;;;;;;4959035;28;20304;-70
2021/04/03 02:31:49;;;;;;;6.07;2.30;;;6.00;99.90;;;;;;4957236;28;20263;-69
2021/04/03 02:34:16;;;;;;;3.40;2.47;;;6.10;99.90;;;;;;4962622;28;20613;-70
2021/04/03 02:36:45;;;;;;;5.00;2.17;;;6.00;99.90;;;;;;4956348;28;20596;-70
2021/04/03 02:39:12;;;;;;;3.17;2.10;;;6.00;99.90;;;;;;4964429;28;20759;-69
2021/04/03 02:41:44;;;;;;;5.67;2.23;;;5.90;99.90;;;;;;4959443;28;20217;-69
2021/04/03 02:44:17;;;;;;;4.20;2.37;;;5.90;99.90;;;;;;4958900;28;20228;-69
2021/04/03 02:46:48;;;;;;;4.33;2.40;;;5.90;99.90;;;;;;4962069;28;20583;-69
2021/04/03 02:49:21;;;;;;;4.20;2.27;;;5.90;99.90;;;;;;4949564;28;20210;-69
2021/04/03 02:51:56;;;;;;;3.47;1.93;;;5.90;99.90;;;;;;4950634;28;20576;-69
2021/04/03 02:54:26;;;;;;;1.70;1.60;;;5.90;99.90;;;;;;4960674;28;20224;-69
2021/04/03 02:56:55;;;;;;;1.80;1.50;;;5.90;99.90;;;;;;4966806;28;20212;-69
2021/04/03 02:59:30;;;;;;;2.37;1.67;;;5.90;99.90;;;;;;4964550;28;20556;-69
2021/04/03 03:02:00;;;;;;;3.53;2.00;;;6.00;99.90;;;;;;4955939;28;20744;-69
2021/04/03 03:04:29;;;;;;;4.17;2.30;;;6.00;99.90;;;;;;4969499;28;20299;-69
2021/04/03 03:06:59;;;;;;;2.83;1.83;;;6.00;99.90;;;;;;4954695;28;20203;-70
2021/04/03 03:09:27;;;;;;;4.03;2.50;;;6.00;99.90;;;;;;4957760;28;20557;-69
2021/04/03 03:11:59;;;;;;;2.23;2.03;;;6.00;99.90;;;;;;4953610;28;20287;-70
2021/04/03 03:14:32;;;;;;;2.83;2.20;;;6.00;99.90;;;;;;4966784;28;20568;-69
2021/04/03 03:16:59;;;;;;;6.87;2.03;;;6.00;99.90;;;;;;4952147;28;20208;-69
2021/04/03 03:19:28;;;;;;;2.93;1.80;;;5.90;99.90;;;;;;4964085;28;20213;-69
2021/04/03 03:21:57;;;;;;;2.57;2.10;;;5.90;99.90;;;;;;4945960;28;20292;-69
2021/04/03 03:24:25;;;;;;;3.47;1.90;;;5.90;99.90;;;;;;4962601;28;20209;-69
2021/04/03 03:26:54;;;;;;;1.87;1.50;;;5.90;99.90;;;;;;4957013;28;20244;-69
2021/04/03 03:29:22;;;;;;;1.97;1.50;;;5.90;99.90;;;;;;4963502;28;20255;-69
2021/04/03 03:31:49;;;;;;;2.00;1.50;;;5.90;99.90;;;;;;4960340;28;20243;-69
2021/04/03 03:34:22;;;;;;;2.00;1.83;;;5.90;99.90;;;;;;4958957;28;20229;-69
2021/04/03 03:36:54;;;;;;;2.67;2.00;;;5.90;99.90;;;;;;4956576;28;20308;-70
2021/04/03 03:39:22;;;;;;;2.50;1.70;;;5.90;99.90;;;;;;4952783;28;20185;-69
2021/04/03 03:41:54;;;;;;;1.87;1.60;;;5.90;99.90;;;;;;4950957;28;20584;-69
2021/04/03 03:44:22;;;;;;;2.17;1.50;;;5.90;99.90;;;;;;4954711;28;20275;-69
2021/04/03 03:46:50;;;;;;;2.00;1.50;;;5.90;99.90;;;;;;4955070;28;20197;-69
2021/04/03 03:49:17;;;;;;;1.33;1.23;;;5.90;99.90;;;;;;4951378;28;20291;-69
2021/04/03 03:51:44;;;;;;;2.87;1.60;;;5.90;99.90;;;;;;4950323;28;20232;-70
2021/04/03 03:54:13;;;;;;;2.37;1.67;;;5.90;99.90;;;;;;4941212;28;20226;-69
2021/04/03 03:56:41;;;;;;;1.37;1.27;;;6.00;99.90;;;;;;4950933;28;20204;-69
2021/04/03 03:59:09;;;;;;;2.80;1.23;;;6.00;99.90;;;;;;4942311;28;20200;-69
2021/04/03 04:01:37;;;;;;;2.83;1.40;;;6.00;99.90;;;;;;4951121;29;20276;-69
2021/04/03 04:04:05;;;;;;;1.70;1.60;;;6.00;99.90;;;;;;4952356;28;20242;-69
2021/04/03 04:06:33;;;;;;;2.47;1.40;;;6.00;99.90;;;;;;4966425;28;20251;-68
2021/04/03 04:09:03;;;;;;;1.57;1.23;;;6.00;99.90;;;;;;4952274;28;20216;-69
2021/04/03 04:11:35;;;;;;;1.47;1.23;;;6.00;99.90;;;;;;4951072;28;20564;-70
2021/04/03 04:14:09;;;;;;;0.93;0.90;;;6.00;99.90;;;;;;4965502;28;20212;-69
2021/04/03 04:16:45;;;;;;;1.77;0.93;;;6.10;99.90;;;;;;4952667;28;20268;-69
2021/04/03 04:19:12;;;;;;;2.97;0.80;;;6.10;99.90;;;;;;4968857;28;20200;-70
2021/04/03 04:21:42;;;;;;;0.90;0.90;;;6.10;99.90;;;;;;4950084;29;20220;-70
2021/04/03 04:24:09;;;;;;;1.70;0.90;;;6.20;99.90;;;;;;4951938;28;20632;-70
2021/04/03 04:26:39;;;;;;;0.83;0.83;;;6.20;99.90;;;;;;4954079;28;20204;-70
2021/04/03 04:29:07;;;;;;;1.47;0.87;;;6.20;99.90;;;;;;4962499;28;20204;-69
2021/04/03 04:31:35;;;;;;;1.03;0.97;;;6.20;99.90;;;;;;4954025;28;20243;-69
2021/04/03 04:34:11;;;;;;;0.90;0.90;;;6.20;99.90;;;;;;4953853;28;20196;-69
2021/04/03 04:36:40;;;;;;;1.33;1.23;;;6.30;99.90;;;;;;4954243;28;20664;-69
2021/04/03 04:39:12;;;;;;;3.20;0.90;;;6.30;99.90;;;;;;4959467;28;20205;-69
2021/04/03 04:41:43;;;;;;;1.20;1.10;;;6.30;99.90;;;;;;4961795;28;20657;-69
2021/04/03 04:44:10;;;;;;;1.20;1.07;;;6.30;99.90;;;;;;4952369;28;20224;-70
2021/04/03 04:46:38;;;;;;;2.73;1.00;;;6.30;99.90;;;;;;4954156;28;20197;-70
2021/04/03 04:49:08;;;;;;;3.27;1.07;;;6.30;99.90;;;;;;4955951;28;20208;-70
2021/04/03 04:51:38;;;;;;;3.63;1.23;;;6.40;99.90;;;;;;4950998;28;20197;-70
2021/04/03 04:54:15;;;;;;;2.90;1.70;;;6.40;99.90;;;;;;4961777;28;20238;-70
2021/04/03 04:56:46;;;;;;;1.67;1.57;;;6.40;99.90;;;;;;4958021;28;20193;-70
2021/04/03 04:59:16;;;;;;;2.93;2.40;;;6.40;99.90;;;;;;4969722;28;20212;-70
2021/04/03 05:01:50;;;;;;;2.43;2.00;;;6.40;99.90;;;;;;4954874;28;20213;-69
2021/04/03 05:04:17;;;;;;;2.90;2.03;;;6.40;99.90;;;;;;4964089;28;20227;-70
2021/04/03 05:06:44;;;;;;;3.57;2.40;;;6.40;99.90;;;;;;4955469;28;20249;-70
2021/04/03 05:09:11;;;;;;;3.27;2.00;;;6.40;99.90;;;;;;4964281;28;20197;-70
2021/04/03 05:11:38;;;;;;;3.90;2.40;;;6.50;99.90;;;;;;4952064;28;20214;-69
2021/04/03 05:14:05;;;;;;;3.07;1.93;;;6.50;99.90;;;;;;4967431;28;20336;-70
2021/04/03 05:16:32;;;;;;;2.20;2.00;;;6.60;99.90;;;;;;4954293;28;20204;-70
2021/04/03 05:18:59;;;;;;;3.10;2.23;;;6.60;99.90;;;;;;4966631;28;20406;-70
2021/04/03 05:21:26;;;;;;;4.50;2.60;;;6.70;99.90;;;;;;4956297;28;20220;-70
2021/04/03 05:23:52;;;;;;;3.30;2.43;;;6.70;99.90;;;;;;4961329;28;20235;-70
2021/04/03 05:26:19;;;;;;;2.83;2.37;;;6.80;99.90;;;;;;4950417;28;20256;-70
2021/04/03 05:28:46;;;;;;;3.53;2.27;;;6.90;99.90;;;;;;4969050;28;20224;-70
2021/04/03 05:31:13;;;;;;;2.90;2.57;;;7.00;99.90;;;;;;4957634;28;20232;-70
2021/04/03 05:33:39;;;;;;;3.60;2.70;;;7.00;99.90;;;;;;4969359;28;20223;-70
2021/04/03 05:36:07;;;;;;;3.13;2.07;;;7.00;99.90;;;;;;4958345;28;20228;-69
2021/04/03 05:38:34;;;;;;;3.47;2.60;;;7.10;99.90;;;;;;4954509;28;20205;-69
2021/04/03 05:41:00;;;;;;;3.33;2.17;;;7.10;99.90;;;;;;4957913;28;20688;-70
2021/04/03 05:43:27;;;;;;;4.47;2.57;;;7.10;99.90;;;;;;4964278;28;20700;-69
2021/04/03 05:45:58;;;;;;;3.97;2.30;;;7.10;99.90;;;;;;4956228;28;20201;-70
2021/04/03 05:48:25;;;;;;;4.43;2.30;;;7.10;99.90;;;;;;4960427;28;20248;-69
2021/04/03 05:50:53;;;;;;;4.50;2.40;;;7.20;99.90;;;;;;4962511;28;20197;-69
2021/04/03 05:53:22;;;;;;;2.97;2.13;;;7.20;99.90;;;;;;4953916;28;20209;-70
2021/04/03 05:55:51;;;;;;;3.27;2.27;;;7.20;99.90;;;;;;4966615;28;20681;-70
2021/04/03 05:58:18;;;;;;;4.87;2.67;;;7.20;99.90;;;;;;4965664;28;20200;-69
2021/04/03 06:00:45;;;;;;;2.37;2.10;;;7.20;99.90;;;;;;4952585;28;20197;-70
2021/04/03 06:03:12;;;;;;;2.43;1.90;;;7.20;99.90;;;;;;4969567;28;20318;-70
2021/04/03 06:05:38;;;;;;;2.97;2.03;;;7.20;99.90;;;;;;4973167;28;20205;-69
2021/04/03 06:08:06;;;;;;;3.80;2.07;;;7.20;99.90;;;;;;4966682;28;20197;-78
2021/04/03 06:10:33;;;;;;;2.47;2.03;;;7.20;99.90;;;;;;4958633;28;20696;-75
2021/04/03 06:13:00;;;;;;;3.90;2.40;;;7.30;99.90;;;;;;4954819;28;20688;-76
2021/04/03 06:15:37;;;;;;;6.60;2.80;;;7.30;99.90;;;;;;4950316;29;20201;-72
2021/04/03 06:18:09;;;;;;;3.10;2.80;;;7.30;99.90;;;;;;4958514;28;20196;-70
2021/04/03 06:20:37;;;;;;;5.03;3.50;;;7.30;99.90;;;;;;4960740;28;20627;-67
2021/04/03 06:23:05;;;;;;;6.57;3.63;;;7.40;99.90;;;;;;4962126;28;20211;-67
2021/04/03 06:25:53;;;;;;;9.50;5.07;;;7.40;99.90;;;;;;4954088;28;20284;-67
2021/04/03 06:28:26;;;;;;;9.37;4.83;;;7.50;99.90;;;;;;4963765;28;20686;-67
2021/04/03 06:30:57;;;;;;;7.00;3.70;;;7.50;99.90;;;;;;4966516;28;20202;-65
2021/04/03 06:33:24;;;;;;;4.10;1.83;;;7.50;99.90;;;;;;4964488;28;20198;-66
2021/04/03 06:36:07;;;;;;;2.50;0.90;;;7.40;99.90;;;;;;4965064;28;20203;-66
2021/04/03 06:38:34;;;;;;;4.03;0.93;;;7.30;99.90;;;;;;4964443;28;20256;-67
2021/04/03 06:41:19;;;;;;;6.17;0.80;;;7.20;99.90;;;;;;4961913;28;20201;-67
2021/04/03 06:44:01;;;;;;;2.07;1.07;;;7.00;99.90;;;;;;4954242;28;20208;-67
2021/04/03 06:46:28;;;;;;;3.43;1.10;;;6.90;99.90;;;;;;4962246;28;20197;-66
2021/04/03 06:48:56;;;;;;;4.43;1.00;;;6.80;99.90;;;;;;4963783;28;20482;-67
2021/04/03 06:51:24;;;;;;;3.57;1.10;;;6.70;99.90;;;;;;4959469;28;20189;-66
2021/04/03 06:53:52;;;;;;;4.37;0.70;;;6.60;99.90;;;;;;4946547;28;20192;-66
2021/04/03 06:56:23;;;;;;;1.27;0.53;;;6.50;99.90;;;;;;4972457;28;20238;-67
2021/04/03 06:58:57;;;;;;;3.53;0.63;;;6.40;99.90;;;;;;4966531;28;20239;-66
2021/04/03 07:01:25;;;;;;;0.40;0.40;;;6.30;99.90;;;;;;4964815;28;20287;-66
2021/04/03 07:03:56;;;;;;;1.73;1.27;;;6.30;99.90;;;;;;4968584;28;20223;-66
2021/04/03 07:06:24;;;;;;;2.00;1.40;;;6.30;99.90;;;;;;4957825;28;20300;-66
2021/04/03 07:08:52;;;;;;;6.77;2.57;;;6.40;99.90;;;;;;4966390;28;20194;-68
2021/04/03 07:11:18;;;;;;;4.10;2.20;;;6.50;99.90;;;;;;4951960;28;20276;-67
2021/04/03 07:13:46;;;;;;;2.70;2.03;;;6.60;99.90;;;;;;4966275;28;20211;-67
2021/04/03 07:16:13;;;;;;;2.10;1.50;;;6.80;99.90;;;;;;4958316;28;20204;-67
2021/04/03 07:18:40;;;;;;;1.87;1.50;;;7.00;99.90;;;;;;4965097;28;20213;-67
2021/04/03 07:21:07;;;;;;;1.70;1.20;;;7.20;99.90;;;;;;4968384;28;20227;-66
2021/04/03 07:23:38;;;;;;;2.87;1.60;;;7.50;99.90;;;;;;4962689;28;20240;-66
2021/04/03 07:26:09;;;;;;;2.03;1.67;;;7.80;99.90;;;;;;4955571;28;20201;-67
2021/04/03 07:28:37;;;;;;;2.23;1.80;;;8.10;99.90;;;;;;4964286;28;20284;-66
2021/04/03 07:31:06;;;;;;;1.97;1.40;;;8.30;99.90;;;;;;4964658;28;20261;-66
2021/04/03 07:33:33;;;;;;;1.20;1.10;;;8.80;99.90;;;;;;4961031;28;20197;-66
2021/04/03 07:36:01;;;;;;;0.90;0.90;;;9.60;99.90;;;;;;4953303;29;20213;-67
2021/04/03 07:38:29;;;;;;;1.33;0.90;;;10.60;99.90;;;;;;4960605;28;20207;-67
2021/04/03 07:40:57;;;;;;;2.53;1.33;;;11.00;99.90;;;;;;4961082;28;20284;-67
2021/04/03 07:43:49;;;;;;;1.77;1.50;;;11.50;99.90;;;;;;4958914;28;20227;-67
2021/04/03 07:46:38;;;;;;;2.53;1.20;;;11.70;99.90;;;;;;4885056;29;20212;-67
2021/04/03 07:49:04;;;;;;;1.53;1.00;;;11.80;99.90;;;;;;4895588;29;20203;-65
2021/04/03 07:51:43;;;;;;;0.83;0.83;;;11.80;99.90;;;;;;4895529;29;20219;-67
2021/04/03 07:54:41;;;;;;;1.53;0.70;;;11.70;99.90;;;;;;4899901;29;20607;-67
2021/04/03 07:57:10;;;;;;;0.77;0.77;;;12.80;99.90;;;;;;4907215;29;20222;-68
2021/04/03 07:59:51;;;;;;;1.47;0.90;;;15.20;97.70;;;;;;4911812;29;20210;-67
2021/04/03 08:02:27;;;;;;;0.90;0.90;;;17.80;92.50;;;;;;4908524;29;20225;-67
2021/04/03 08:04:56;;;;;;;0.90;0.90;;;20.50;78.00;;;;;;4894290;29;20232;-67
2021/04/03 08:07:23;;;;;;;1.00;0.80;;;22.60;63.80;;;;;;4888166;29;20253;-67
2021/04/03 08:09:51;;;;;;;0.83;0.83;;;23.90;55.50;;;;;;4883268;29;20254;-67
2021/04/03 08:12:22;;;;;;;0.80;0.80;;;25.00;51.90;;;;;;4896938;29;20203;-66
2021/04/03 08:14:57;;;;;;;1.10;0.90;;;26.10;49.80;;;;;;4889110;29;20210;-68
2021/04/03 08:17:25;;;;;;;1.77;1.30;;;26.80;44.20;;;;;;4899941;29;20213;-67
2021/04/03 08:19:52;;;;;;;2.10;1.30;;;26.60;42.40;;;;;;4902884;29;20215;-68
2021/04/03 08:22:19;;;;;;;3.90;1.70;;;27.10;42.40;;;;;;4926867;28;20414;-67
2021/04/03 08:24:59;;;;;;;1.17;1.08;;;27.70;39.60;;;;;;4963332;28;20202;-68
2021/04/03 08:27:37;;;;;;;1.00;0.90;;;28.20;38.90;;;;;;4952471;28;20597;-67
2021/04/03 08:30:21;;;;;;;0.80;0.80;;;28.80;37.40;;;;;;4961139;28;20204;-67
2021/04/03 08:33:10;;;;;;;1.00;0.85;;;29.30;37.40;;;;;;4961929;28;20267;-67
2021/04/03 08:35:39;;;;;;;1.55;0.93;;;30.50;36.30;;;;;;4959506;28;20199;-66
2021/04/03 08:38:14;;;;;;;1.30;1.20;;;31.00;34.10;;;;;;4961003;28;20205;-67
2021/04/03 08:40:42;;;;;;;1.95;1.50;;;30.90;34.20;;;;;;4963939;28;20203;-67
2021/04/03 08:43:09;;;;;;;2.35;1.60;;;31.30;32.70;;;;;;4961574;28;20189;-66
2021/04/03 08:45:37;;;;;;;2.97;1.73;;;31.40;31.50;;;;;;4962871;28;20284;-66
2021/04/03 08:48:07;;;;;;;3.88;1.70;;;31.00;31.70;;;;;;4959353;28;20197;-66
2021/04/03 08:50:35;;;;;;;6.53;2.05;;;30.40;31.60;;;;;;4955139;28;20208;-68
2021/04/03 08:53:03;;;;;;;1.42;1.20;;;30.60;31.20;;;;;;4956329;28;20692;-67
2021/04/03 08:55:30;;;;;;;3.22;1.92;;;30.70;30.70;;;;;;4967322;28;20275;-67
2021/04/03 08:57:57;;;;;;;2.53;1.50;;;30.30;30.80;;;;;;4970668;28;20207;-67
2021/04/03 09:00:25;;;;;;;7.85;2.70;;;30.60;31.00;;;;;;4969544;28;20200;-68
2021/04/03 09:02:54;;;;;;;4.72;3.20;;;30.90;30.30;;;;;;4973098;28;20664;-67
2021/04/03 09:05:21;;;;;;;3.00;2.00;;;30.80;29.90;;;;;;4972559;28;20262;-67
2021/04/03 09:07:49;;;;;;;1.45;1.35;;;30.90;30.00;;;;;;4962452;28;20200;-66
2021/04/03 09:10:17;;;;;;;1.15;1.00;;;31.10;29.30;;;;;;4962081;28;20207;-69
2021/04/03 09:12:45;;;;;;;1.17;1.08;;;31.30;29.20;;;;;;4961711;28;20572;-67
2021/04/03 09:15:13;;;;;;;1.10;1.00;;;31.90;29.10;;;;;;4970049;28;20201;-68
2021/04/03 09:17:48;;;;;;;1.10;1.00;;;33.20;29.30;;;;;;4965025;28;20203;-67
2021/04/03 09:20:20;;;;;;;2.70;2.33;;;33.50;26.60;;;;;;4968280;28;20676;-67
2021/04/03 09:22:49;;;;;;;4.97;2.20;;;33.30;26.10;;;;;;4965619;28;20207;-66
2021/04/03 09:25:17;;;;;;;1.45;1.45;;;33.40;25.90;;;;;;4966184;28;20649;-68
2021/04/03 09:27:57;;;;;;;2.05;1.65;;;33.40;26.10;;;;;;4958333;28;20732;-67
2021/04/03 09:30:37;;;;;;;2.47;1.40;;;33.60;25.80;;;;;;4969175;28;20200;-67
2021/04/03 09:33:19;;;;;;;1.85;1.55;;;33.80;26.00;;;;;;4955327;28;20241;-67
2021/04/03 09:35:46;;;;;;;4.30;1.67;;;34.00;26.10;;;;;;4964092;28;20206;-66
2021/04/03 09:38:14;;;;;;;1.50;1.40;;;34.40;26.40;;;;;;4963520;28;20189;-66
2021/04/03 09:40:42;;;;;;;2.05;1.60;;;34.60;26.50;;;;;;4963285;28;20225;-66
2021/04/03 09:43:10;;;;;;;6.40;2.60;;;34.70;26.10;;;;;;4958586;28;20201;-67
2021/04/03 09:45:38;;;;;;;4.68;2.40;;;34.80;25.60;;;;;;4946952;28;20213;-66
2021/04/03 09:48:06;;;;;;;1.55;1.45;;;34.50;26.00;;;;;;4951193;28;20208;-67
2021/04/03 09:50:33;;;;;;;1.20;1.10;;;33.80;25.20;;;;;;4944930;28;20204;-67
2021/04/03 09:53:07;;;;;;;1.55;1.45;;;33.30;25.70;;;;;;4947008;28;20205;-67
2021/04/03 09:55:35;;;;;;;2.38;1.10;;;33.20;25.60;;;;;;4953593;28;20190;-68
2021/04/03 09:58:02;;;;;;;2.53;1.83;;;33.00;25.30;;;;;;4960811;28;20212;-67
2021/04/03 10:00:29;;;;;;;2.00;1.23;;;32.90;25.60;;;;;;4948434;29;20212;-71
2021/04/03 10:02:55;;;;;;;1.60;1.50;;;32.90;25.50;;;;;;4953911;28;20557;-70
2021/04/03 10:05:22;;;;;;;1.88;1.65;;;32.70;25.60;;;;;;4952637;28;20215;-71
2021/04/03 10:07:49;;;;;;;2.08;1.88;;;32.70;25.60;;;;;;4953430;28;20213;-72
2021/04/03 10:10:16;;;;;;;3.08;2.20;;;32.50;25.60;;;;;;4951345;28;20312;-70
2021/04/03 10:12:44;;;;;;;3.40;1.83;;;31.90;25.70;;;;;;4959006;28;20218;-70
2021/04/03 10:15:11;;;;;;;1.90;1.80;;;31.60;26.10;;;;;;4946180;28;20228;-70
2021/04/03 10:17:37;;;;;;;6.60;2.72;;;31.30;26.40;;;;;;4967630;28;20209;-71
2021/04/03 10:20:05;;;;;;;3.72;1.60;;;31.10;26.40;;;;;;4969605;28;20216;-71
2021/04/03 10:22:32;;;;;;;2.92;1.40;;;30.10;26.60;;;;;;4971589;28;20232;-71
2021/04/03 10:24:59;;;;;;;4.95;1.40;;;29.20;27.20;;;;;;4975070;28;20217;-71
2021/04/03 10:27:25;;;;;;;2.17;1.75;;;28.30;27.80;;;;;;4977203;28;20188;-69
2021/04/03 10:29:53;;;;;;;2.60;2.30;;;28.40;28.30;;;;;;4966643;28;20193;-71
2021/04/03 10:32:19;;;;;;;3.03;2.55;;;28.50;28.30;;;;;;4957749;28;20259;-71
2021/04/03 10:34:46;;;;;;;2.22;1.40;;;28.40;28.40;;;;;;4950072;29;20292;-72
2021/04/03 10:37:13;;;;;;;3.03;1.50;;;28.40;28.40;;;;;;4951495;28;20267;-71
2021/04/03 10:39:40;;;;;;;2.45;1.20;;;28.40;28.30;;;;;;4957881;28;20208;-72
2021/04/03 10:42:08;;;;;;;3.88;1.20;;;28.60;28.20;;;;;;4965784;28;20200;-71
2021/04/03 10:44:35;;;;;;;1.20;1.10;;;28.70;27.90;;;;;;4962066;28;20233;-72
2021/04/03 10:47:03;;;;;;;3.33;1.95;;;28.80;27.90;;;;;;4961948;28;20404;-71
2021/04/03 10:49:29;;;;;;;1.50;1.10;;;29.00;27.80;;;;;;4952252;28;20207;-72
2021/04/03 10:51:56;;;;;;;3.47;2.60;;;29.10;27.50;;;;;;4951856;28;20193;-72
2021/04/03 10:54:23;;;;;;;2.60;1.90;;;29.00;27.50;;;;;;4946314;28;20692;-72
2021/04/03 10:56:50;;;;;;;4.05;2.78;;;28.90;27.60;;;;;;4954056;28;20206;-73
2021/04/03 10:59:17;;;;;;;4.82;3.42;;;28.90;27.60;;;;;;4962948;28;20231;-73
2021/04/03 11:01:44;;;;;;;8.82;5.55;;;28.70;27.60;;;;;;4959547;28;20271;-73
2021/04/03 11:04:11;;;;;;;4.68;3.80;;;28.70;27.90;;;;;;4965005;28;20204;-73
2021/04/03 11:06:38;;;;;;;3.60;2.50;;;28.50;27.80;;;;;;4959948;28;20732;-72
2021/04/03 11:09:05;;;;;;;9.43;4.65;;;28.20;27.90;;;;;;4961791;28;20192;-72
2021/04/03 11:11:32;;;;;;;3.42;2.47;;;28.20;28.10;;;;;;4960853;28;20214;-73
2021/04/03 11:13:59;;;;;;;2.03;1.38;;;28.30;27.90;;;;;;4970381;28;20205;-73
2021/04/03 11:16:26;;;;;;;2.83;2.00;;;28.10;27.90;;;;;;4957118;28;20204;-73
2021/04/03 11:18:53;;;;;;;1.73;1.63;;;27.80;28.10;;;;;;4949131;29;20225;-70
2021/04/03 11:21:21;;;;;;;2.33;1.85;;;27.80;28.40;;;;;;4948537;29;20225;-72
2021/04/03 11:23:49;;;;;;;3.00;2.45;;;27.70;28.60;;;;;;4952200;28;20745;-72
2021/04/03 11:26:16;;;;;;;3.97;2.75;;;27.60;28.50;;;;;;4949439;28;20516;-72
2021/04/03 11:28:43;;;;;;;8.35;3.83;;;27.00;28.50;;;;;;4958324;28;20715;-71
2021/04/03 11:31:10;;;;;;;7.63;4.15;;;25.70;29.20;;;;;;4959920;28;20236;-72
2021/04/03 11:33:36;;;;;;;5.70;3.05;;;24.70;30.10;;;;;;4960151;28;20217;-71
2021/04/03 11:36:03;;;;;;;4.80;2.80;;;24.40;30.70;;;;;;4951570;29;20301;-73
2021/04/03 11:38:31;;;;;;;3.83;2.88;;;24.00;31.00;;;;;;4954073;28;20287;-72
2021/04/03 11:40:58;;;;;;;4.75;2.55;;;23.40;31.40;;;;;;4952470;28;20201;-73
2021/04/03 11:43:25;;;;;;;5.00;1.65;;;23.00;32.20;;;;;;4952999;28;20200;-72
2021/04/03 11:45:51;;;;;;;1.73;1.10;;;22.80;32.30;;;;;;4955086;28;20193;-73
2021/04/03 11:48:18;;;;;;;1.73;1.40;;;22.60;32.30;;;;;;4957330;28;20230;-73
2021/04/03 11:50:46;;;;;;;2.58;1.42;;;22.30;32.70;;;;;;4959400;28;20672;-74
2021/04/03 11:53:14;;;;;;;3.22;1.50;;;21.90;32.80;;;;;;4956395;28;20495;-73
2021/04/03 11:55:41;;;;;;;2.25;1.50;;;21.70;33.20;;;;;;4964805;28;20499;-72
2021/04/03 11:58:08;;;;;;;1.58;1.13;;;21.20;33.40;;;;;;4960115;28;20281;-72
2021/04/03 12:00:35;;;;;;;2.50;1.80;;;20.80;34.60;;;;;;4943456;28;20720;-73
2021/04/03 12:03:02;;;;;;;4.53;1.85;;;20.40;34.50;;;;;;4964806;28;20212;-71
2021/04/03 12:05:29;;;;;;;1.45;0.93;;;19.60;35.10;;;;;;4955949;28;20217;-72
2021/04/03 12:07:56;;;;;;;1.27;1.00;;;18.70;36.00;;;;;;4948028;28;20208;-73
2021/04/03 12:10:23;;;;;;;3.20;1.00;;;18.00;37.10;;;;;;4949998;28;20199;-73
2021/04/03 12:12:50;;;;;;;2.57;1.23;;;17.20;38.30;;;;;;4955695;28;20201;-72
2021/04/03 12:15:18;;;;;;;2.60;1.57;;;16.60;39.20;;;;;;4950191;28;20542;-73
2021/04/03 12:17:45;;;;;;;3.43;1.20;;;16.10;40.00;;;;;;4953384;28;20201;-72
2021/04/03 12:20:14;;;;;;;3.77;1.03;;;15.70;41.00;;;;;;4954599;28;20564;-71
2021/04/03 12:22:40;;;;;;;5.77;2.13;;;15.20;41.50;;;;;;4958352;28;20546;-73
2021/04/03 12:25:08;;;;;;;3.87;2.20;;;14.80;42.10;;;;;;4946506;28;20731;-72
2021/04/03 12:27:35;;;;;;;3.17;1.73;;;14.40;42.80;;;;;;4946150;28;20215;-71
2021/04/03 12:30:04;;;;;;;8.40;1.90;;;14.00;43.00;;;;;;4953742;28;20205;-72
2021/04/03 12:32:31;;;;;;;4.77;2.43;;;13.80;44.00;;;;;;4950932;28;20243;-72
2021/04/03 12:34:57;;;;;;;4.97;2.10;;;13.50;44.60;;;;;;4952700;28;20577;-72
2021/04/03 12:37:24;;;;;;;5.87;1.63;;;13.30;45.40;;;;;;4938678;28;20275;-69
2021/04/03 12:39:51;;;;;;;9.87;1.90;;;12.90;46.30;;;;;;4937845;28;20197;-71
2021/04/03 12:42:17;;;;;;;2.57;1.60;;;12.60;47.00;;;;;;4944812;28;20206;-69
2021/04/03 12:44:44;;;;;;;2.30;1.10;;;12.30;47.60;;;;;;4954013;28;20208;-71
2021/04/03 12:47:12;;;;;;;1.27;0.70;;;12.00;48.40;;;;;;4957737;28;20245;-70
2021/04/03 12:49:38;;;;;;;7.00;2.60;;;11.80;48.70;;;;;;4944735;28;20678;-71
2021/04/03 12:52:06;;;;;;;2.07;1.63;;;11.70;49.60;;;;;;4942446;28;20205;-69
2021/04/03 12:54:33;;;;;;;3.00;1.13;;;11.60;49.90;;;;;;4949248;28;20194;-71
2021/04/03 12:57:00;;;;;;;1.43;0.80;;;11.50;50.20;;;;;;4942648;28;20205;-70
2021/04/03 12:59:26;;;;;;;5.10;1.10;;;11.30;50.50;;;;;;4951456;28;20208;-71
2021/04/03 13:01:54;;;;;;;3.83;1.03;;;11.20;50.80;;;;;;4953332;28;20205;-71
2021/04/03 13:04:21;;;;;;;3.00;1.80;;;10.90;51.20;;;;;;4965691;28;20672;-71